Time;durP1;ratioP1;P1;durP2;ratioP2;P2;SDS_P1;SDS_P2;PMS_P1;PMS_P2;Temp;Humidity;BMP_temperature;BMP_pressure;BME280_temperature;BME280_humidity;BME280_pressure;Samples;Min_cycle;Max_cycle;Signal;HPM_P1;HPM_P2
2021/10/02 00:31:26;;;;;;;;;;;7.10;90.10;;;;;;5016417;28;19927;-83
2021/10/02 00:44:37;;;;;;;;;;;7.10;90.20;;;;;;5017028;28;19912;-83
2021/10/02 00:44:41;;;;;;;;;;;7.10;90.30;;;;;;5015343;28;20384;-86
2021/10/02 00:47:09;;;;;;;;;;;7.10;90.30;;;;;;5015303;28;19912;-85
2021/10/02 00:49:35;;;;;;;;;;;7.10;90.30;;;;;;5014651;28;20281;-85
2021/10/02 00:52:02;;;;;;;;;;;7.10;90.30;;;;;;5017201;28;19905;-84
2021/10/02 00:54:27;;;;;;;;;;;7.10;90.30;;;;;;5014810;28;20290;-84
2021/10/02 00:56:53;;;;;;;;;;;7.10;90.20;;;;;;5014914;28;19909;-84
2021/10/02 00:59:19;;;;;;;;;;;7.00;90.20;;;;;;5014703;28;20043;-83
2021/10/02 01:01:52;;;;;;;;;;;7.00;90.20;;;;;;5015086;28;19959;-84
2021/10/02 01:04:19;;;;;;;;;;;6.90;90.30;;;;;;5015402;28;19913;-84
2021/10/02 01:06:48;;;;;;;;;;;6.90;90.40;;;;;;5014329;28;19905;-84
2021/10/02 01:09:31;;;;;;;;;;;6.90;90.40;;;;;;5014374;28;19917;-83
2021/10/02 01:12:08;;;;;;;;;;;6.80;90.50;;;;;;5014384;28;19905;-83
2021/10/02 01:14:46;;;;;;;;;;;6.80;90.60;;;;;;5014668;28;20291;-83
2021/10/02 01:17:18;;;;;;;;;;;6.90;90.60;;;;;;5014373;28;19912;-84
2021/10/02 01:20:02;;;;;;;;;;;6.80;90.50;;;;;;5014173;28;19905;-84
2021/10/02 01:22:47;;;;;;;;;;;6.80;90.50;;;;;;5015163;28;19912;-82
2021/10/02 01:25:22;;;;;;;;;;;6.80;90.60;;;;;;5014018;28;19920;-84
2021/10/02 01:27:57;;;;;;;;;;;6.80;90.60;;;;;;5014066;28;19959;-82
2021/10/02 01:33:06;;;;;;;;;;;6.60;90.80;;;;;;5013384;28;19948;-82
2021/10/02 01:35:41;;;;;;;;;;;6.60;90.90;;;;;;5014785;28;19960;-82
2021/10/02 01:49:23;;;;;;;;;;;6.50;91.10;;;;;;5013714;28;20003;-81
2021/10/02 01:51:50;;;;;;;;;;;6.50;91.10;;;;;;5017052;28;19912;-81
2021/10/02 01:54:16;;;;;;;;;;;6.50;91.10;;;;;;5023961;28;19905;-80
2021/10/02 01:56:42;;;;;;;;;;;6.50;91.20;;;;;;5013794;28;20627;-81
2021/10/02 01:59:10;;;;;;;;;;;6.60;91.20;;;;;;5014131;28;19905;-83
2021/10/02 02:01:38;;;;;;;;;;;6.50;91.20;;;;;;5014870;28;19905;-81
2021/10/02 02:04:04;;;;;;;;;;;6.50;91.20;;;;;;5014514;28;19913;-80
2021/10/02 02:06:30;;;;;;;;;;;6.50;91.30;;;;;;5013837;28;19912;-83
2021/10/02 02:08:56;;;;;;;;;;;6.60;91.30;;;;;;5013905;28;20000;-81
2021/10/02 02:11:23;;;;;;;;;;;6.50;91.30;;;;;;5013717;28;19909;-82
2021/10/02 02:13:50;;;;;;;;;;;6.50;91.30;;;;;;5013490;28;20282;-82
2021/10/02 02:16:16;;;;;;;;;;;6.50;91.30;;;;;;5013571;28;19905;-80
2021/10/02 02:18:42;;;;;;;;;;;6.50;91.30;;;;;;5013308;28;19945;-81
2021/10/02 02:21:09;;;;;;;;;;;6.50;91.30;;;;;;5014244;28;19905;-81
2021/10/02 02:23:35;;;;;;;;;;;6.50;91.30;;;;;;5013940;28;19913;-82
2021/10/02 02:26:04;;;;;;;;;;;6.50;91.40;;;;;;5013265;28;19905;-81
2021/10/02 02:28:31;;;;;;;;;;;6.50;91.40;;;;;;4995664;28;19920;-83
2021/10/02 02:30:57;;;;;;;;;;;6.50;91.40;;;;;;5012093;28;19913;-81
2021/10/02 02:33:22;;;;;;;;;;;6.40;91.40;;;;;;5013093;28;19910;-82
2021/10/02 02:35:49;;;;;;;;;;;6.50;91.40;;;;;;5013673;28;19906;-80
2021/10/02 02:38:14;;;;;;;;;;;6.50;91.40;;;;;;5013110;28;19917;-81
2021/10/02 02:40:40;;;;;;;;;;;6.50;91.40;;;;;;5013474;28;19905;-82
2021/10/02 02:43:08;;;;;;;;;;;6.50;91.40;;;;;;5013907;28;20359;-82
2021/10/02 02:45:33;;;;;;;;;;;6.50;91.40;;;;;;5013956;28;19925;-81
2021/10/02 02:48:04;;;;;;;;;;;6.50;91.40;;;;;;5013992;28;19909;-81
2021/10/02 02:50:49;;;;;;;;;;;6.40;91.40;;;;;;5013218;28;20256;-81
2021/10/02 02:53:33;;;;;;;;;;;6.40;91.40;;;;;;5013273;28;19975;-82
2021/10/02 02:56:04;;;;;;;;;;;6.50;91.40;;;;;;4995594;28;19905;-81
2021/10/02 02:58:30;;;;;;;;;;;6.60;91.40;;;;;;5017633;28;19936;-81
2021/10/02 03:01:00;;;;;;;;;;;6.60;91.30;;;;;;5017251;28;20016;-83
2021/10/02 03:03:30;;;;;;;;;;;6.60;91.30;;;;;;5016938;28;19909;-82
2021/10/02 03:06:03;;;;;;;;;;;6.60;91.30;;;;;;5011921;28;19913;-81
2021/10/02 03:08:33;;;;;;;;;;;6.70;91.30;;;;;;5018879;28;19941;-81
2021/10/02 03:11:01;;;;;;;;;;;6.70;91.30;;;;;;4999213;28;19906;-82
2021/10/02 03:13:29;;;;;;;;;;;6.70;91.20;;;;;;5016752;28;19996;-82
2021/10/02 03:15:55;;;;;;;;;;;6.80;91.30;;;;;;5016638;28;20001;-82
2021/10/02 03:18:21;;;;;;;;;;;6.70;91.20;;;;;;5015152;28;19905;-80
2021/10/02 03:20:50;;;;;;;;;;;6.70;91.20;;;;;;5016238;28;19906;-81
2021/10/02 03:23:20;;;;;;;;;;;6.70;91.20;;;;;;5016812;28;19988;-83
2021/10/02 03:25:46;;;;;;;;;;;6.70;91.20;;;;;;5016343;28;19913;-84
2021/10/02 03:28:12;;;;;;;;;;;6.80;91.20;;;;;;5016487;28;20347;-83
2021/10/02 03:30:38;;;;;;;;;;;6.80;91.10;;;;;;5020468;28;19933;-83
2021/10/02 03:33:04;;;;;;;;;;;6.80;91.10;;;;;;5016503;28;20346;-81
2021/10/02 03:35:30;;;;;;;;;;;6.80;91.10;;;;;;5016461;28;19913;-83
2021/10/02 03:37:55;;;;;;;;;;;6.80;91.10;;;;;;5018236;28;19959;-84
2021/10/02 03:40:21;;;;;;;;;;;6.80;91.10;;;;;;4999796;28;19913;-82
2021/10/02 03:42:51;;;;;;;;;;;6.80;91.10;;;;;;5016134;28;20400;-82
2021/10/02 03:45:17;;;;;;;;;;;6.80;91.10;;;;;;5015984;28;20004;-83
2021/10/02 03:47:43;;;;;;;;;;;6.80;91.00;;;;;;5025112;28;19956;-82
2021/10/02 03:50:09;;;;;;;;;;;6.80;91.00;;;;;;5023444;28;19909;-83
2021/10/02 03:52:35;;;;;;;;;;;6.80;91.00;;;;;;5015830;28;19915;-81
2021/10/02 03:55:01;;;;;;;;;;;6.80;91.00;;;;;;5015969;28;19909;-83
2021/10/02 03:57:27;;;;;;;;;;;6.80;91.00;;;;;;5015930;28;19952;-83
2021/10/02 03:59:52;;;;;;;;;;;6.80;91.00;;;;;;5015914;28;19921;-83
2021/10/02 04:02:18;;;;;;;;;;;6.70;91.10;;;;;;5015988;28;20298;-81
2021/10/02 04:04:43;;;;;;;;;;;6.70;91.00;;;;;;5016027;28;19913;-82
2021/10/02 04:07:09;;;;;;;;;;;6.70;91.10;;;;;;5016148;28;19906;-81
2021/10/02 04:09:35;;;;;;;;;;;6.80;91.10;;;;;;5018138;28;20052;-83
2021/10/02 04:12:00;;;;;;;;;;;6.80;91.00;;;;;;5015796;28;19948;-83
2021/10/02 04:14:26;;;;;;;;;;;6.80;90.90;;;;;;5015394;28;19909;-81
2021/10/02 04:16:52;;;;;;;;;;;6.90;91.00;;;;;;5015635;28;19995;-81
2021/10/02 04:19:17;;;;;;;;;;;6.90;91.00;;;;;;5015416;28;20252;-84
2021/10/02 04:21:43;;;;;;;;;;;6.90;90.90;;;;;;5015522;28;19913;-83
2021/10/02 04:24:09;;;;;;;;;;;7.00;90.90;;;;;;5015168;28;20392;-81
2021/10/02 04:26:35;;;;;;;;;;;7.00;90.90;;;;;;5015367;28;19928;-81
2021/10/02 04:29:03;;;;;;;;;;;7.00;90.90;;;;;;4997432;28;19906;-82
2021/10/02 04:31:29;;;;;;;;;;;7.00;90.90;;;;;;5015287;28;19905;-80
2021/10/02 04:33:55;;;;;;;;;;;7.00;90.90;;;;;;5015291;28;19916;-81
2021/10/02 04:36:20;;;;;;;;;;;7.00;90.90;;;;;;5019630;28;19905;-82
2021/10/02 04:38:46;;;;;;;;;;;7.00;90.90;;;;;;5016258;28;19922;-82
2021/10/02 04:41:12;;;;;;;;;;;7.10;91.00;;;;;;5015382;28;19973;-82
2021/10/02 04:43:41;;;;;;;;;;;7.20;91.00;;;;;;5014743;28;19913;-82
2021/10/02 04:46:13;;;;;;;;;;;7.20;90.90;;;;;;5014913;28;19913;-81
2021/10/02 04:48:39;;;;;;;;;;;7.30;90.90;;;;;;5014859;28;19905;-82
2021/10/02 04:51:05;;;;;;;;;;;7.30;90.80;;;;;;5015035;28;19958;-81
2021/10/02 04:53:31;;;;;;;;;;;7.40;90.80;;;;;;5014579;28;19959;-80
2021/10/02 04:55:59;;;;;;;;;;;7.40;90.70;;;;;;5016773;28;19996;-83
2021/10/02 04:58:25;;;;;;;;;;;7.50;90.60;;;;;;5018360;28;19921;-82
2021/10/02 05:00:51;;;;;;;;;;;7.50;90.70;;;;;;5018154;28;20313;-82
2021/10/02 05:03:17;;;;;;;;;;;7.60;90.70;;;;;;5015436;28;19905;-83
2021/10/02 05:05:42;;;;;;;;;;;7.60;90.60;;;;;;5014724;28;19913;-83
2021/10/02 05:08:08;;;;;;;;;;;7.60;90.60;;;;;;4996929;28;20370;-82
2021/10/02 05:10:33;;;;;;;;;;;7.70;90.50;;;;;;5014419;28;19980;-84
2021/10/02 05:12:59;;;;;;;;;;;7.70;90.40;;;;;;5014159;28;19905;-83
2021/10/02 05:15:25;;;;;;;;;;;7.80;90.40;;;;;;5014415;28;20384;-84
2021/10/02 05:17:50;;;;;;;;;;;7.90;90.20;;;;;;5014464;28;20263;-83
2021/10/02 05:20:16;;;;;;;;;;;7.90;90.00;;;;;;4996491;28;19992;-83
2021/10/02 05:22:42;;;;;;;;;;;7.80;90.00;;;;;;4997021;28;19905;-82
2021/10/02 05:25:07;;;;;;;;;;;7.80;90.00;;;;;;5013066;28;19919;-83
2021/10/02 05:27:33;;;;;;;;;;;7.80;90.00;;;;;;5012845;28;19909;-83
2021/10/02 05:29:59;;;;;;;;;;;7.90;90.10;;;;;;5014024;28;19905;-85
2021/10/02 05:32:25;;;;;;;;;;;8.00;90.10;;;;;;5014797;28;19913;-84
2021/10/02 05:34:50;;;;;;;;;;;8.10;89.90;;;;;;5014833;28;19910;-83
2021/10/02 05:37:16;;;;;;;;;;;8.20;89.70;;;;;;5014538;28;19960;-82
2021/10/02 05:39:42;;;;;;;;;;;8.40;89.40;;;;;;5014158;28;19960;-84
2021/10/02 05:42:07;;;;;;;;;;;8.50;89.00;;;;;;5016404;28;19968;-84
2021/10/02 05:44:33;;;;;;;;;;;8.60;88.80;;;;;;4998921;28;20297;-83
2021/10/02 05:47:00;;;;;;;;;;;8.70;88.40;;;;;;5014101;28;20277;-81
2021/10/02 05:49:25;;;;;;;;;;;8.70;88.40;;;;;;4996468;28;20362;-83
2021/10/02 05:51:51;;;;;;;;;;;8.90;88.20;;;;;;5014041;28;19905;-82
2021/10/02 05:54:17;;;;;;;;;;;9.00;88.10;;;;;;4996214;28;19905;-81
2021/10/02 05:56:42;;;;;;;;;;;9.10;87.60;;;;;;5014190;28;19909;-82
2021/10/02 05:59:08;;;;;;;;;;;9.20;87.50;;;;;;5015221;28;19991;-82
2021/10/02 06:01:34;;;;;;;;;;;9.30;87.10;;;;;;5016236;28;19912;-84
2021/10/02 06:04:00;;;;;;;;;;;9.40;87.40;;;;;;5015574;28;19914;-82
2021/10/02 06:06:25;;;;;;;;;;;9.60;86.90;;;;;;5013944;28;19905;-82
2021/10/02 06:08:51;;;;;;;;;;;9.80;86.70;;;;;;5014333;28;19905;-83
2021/10/02 06:11:18;;;;;;;;;;;9.80;85.80;;;;;;5013962;28;19909;-83
2021/10/02 06:13:44;;;;;;;;;;;10.00;85.80;;;;;;5014006;28;19906;-83
2021/10/02 06:16:10;;;;;;;;;;;10.00;84.90;;;;;;5013629;28;20380;-83
2021/10/02 06:18:35;;;;;;;;;;;9.80;83.70;;;;;;5014374;28;19952;-82
2021/10/02 06:21:01;;;;;;;;;;;9.80;83.20;;;;;;5015269;28;19995;-83
2021/10/02 06:23:27;;;;;;;;;;;9.70;82.60;;;;;;5015040;28;20359;-85
2021/10/02 06:25:53;;;;;;;;;;;9.70;82.50;;;;;;5014152;28;19909;-82
2021/10/02 06:28:20;;;;;;;;;;;9.80;82.80;;;;;;5014233;28;19988;-84
2021/10/02 06:30:45;;;;;;;;;;;9.70;81.80;;;;;;5014056;28;20330;-84
2021/10/02 06:33:24;;;;;;;;;;;9.50;81.70;;;;;;5017721;28;20004;-85
2021/10/02 06:35:50;;;;;;;;;;;9.50;82.00;;;;;;5018493;28;20003;-87
2021/10/02 06:38:16;;;;;;;;;;;9.70;82.40;;;;;;5017881;28;20030;-85
2021/10/02 06:40:43;;;;;;;;;;;9.90;82.00;;;;;;5017480;28;20398;-84
2021/10/02 06:43:09;;;;;;;;;;;10.00;81.30;;;;;;5000391;28;20381;-85
2021/10/02 06:45:35;;;;;;;;;;;10.20;81.40;;;;;;5000120;28;20489;-84
2021/10/02 06:48:01;;;;;;;;;;;10.30;80.90;;;;;;5018118;28;19948;-84
2021/10/02 06:50:27;;;;;;;;;;;10.50;80.70;;;;;;5017008;28;19916;-83
2021/10/02 06:52:54;;;;;;;;;;;10.60;80.80;;;;;;5016705;28;19909;-84
2021/10/02 06:55:20;;;;;;;;;;;10.70;79.70;;;;;;5018128;28;19905;-83
2021/10/02 06:57:46;;;;;;;;;;;10.50;79.00;;;;;;5018783;28;19933;-86
2021/10/02 07:00:12;;;;;;;;;;;10.40;79.10;;;;;;5018025;28;19906;-85
2021/10/02 07:02:41;;;;;;;;;;;10.60;79.40;;;;;;5017502;28;20274;-85
2021/10/02 07:05:10;;;;;;;;;;;10.80;80.20;;;;;;5016160;28;19913;-84
2021/10/02 07:07:36;;;;;;;;;;;11.20;79.40;;;;;;4999101;28;19960;-83
2021/10/02 07:10:02;;;;;;;;;;;11.40;78.60;;;;;;5020529;28;19905;-85
2021/10/02 07:12:27;;;;;;;;;;;11.40;77.20;;;;;;5026936;28;19906;-83
2021/10/02 07:14:53;;;;;;;;;;;11.50;76.90;;;;;;5023486;28;19909;-85
2021/10/02 07:17:18;;;;;;;;;;;11.60;76.80;;;;;;5003391;28;20271;-85
2021/10/02 07:19:44;;;;;;;;;;;11.70;76.40;;;;;;5017561;28;19928;-84
2021/10/02 07:22:10;;;;;;;;;;;11.70;75.90;;;;;;5016652;28;19913;-83
2021/10/02 07:24:36;;;;;;;;;;;11.60;74.80;;;;;;5016530;28;19925;-84
2021/10/02 07:27:01;;;;;;;;;;;11.30;74.50;;;;;;5016810;28;19948;-83
2021/10/02 07:29:27;;;;;;;;;;;11.30;74.80;;;;;;5015414;28;19917;-83
2021/10/02 07:31:53;;;;;;;;;;;11.10;74.30;;;;;;5015171;28;19909;-83
2021/10/02 07:34:18;;;;;;;;;;;11.10;74.80;;;;;;5015285;28;20012;-83
2021/10/02 07:36:44;;;;;;;;;;;11.30;75.10;;;;;;5015718;28;19905;-82
2021/10/02 07:39:10;;;;;;;;;;;11.60;74.90;;;;;;5017252;28;20362;-82
2021/10/02 07:41:40;;;;;;;;;;;11.80;74.10;;;;;;5019712;28;19909;-84
2021/10/02 07:44:09;;;;;;;;;;;11.50;73.00;;;;;;5000515;28;19920;-82
2021/10/02 07:46:36;;;;;;;;;;;11.60;73.30;;;;;;5015020;28;20278;-84
2021/10/02 07:49:01;;;;;;;;;;;11.80;73.40;;;;;;4999041;28;19906;-82
2021/10/02 07:51:27;;;;;;;;;;;12.10;73.30;;;;;;5016465;28;20260;-84
2021/10/02 07:53:53;;;;;;;;;;;12.30;72.40;;;;;;5016422;28;20056;-84
2021/10/02 07:56:20;;;;;;;;;;;12.50;73.00;;;;;;5019263;28;20032;-83
2021/10/02 07:58:51;;;;;;;;;;;12.30;70.20;;;;;;5016261;28;19912;-85
2021/10/02 08:01:16;;;;;;;;;;;11.70;70.50;;;;;;5016020;28;20397;-81
2021/10/02 08:03:42;;;;;;;;;;;11.80;71.50;;;;;;4998332;28;19905;-84
2021/10/02 08:06:08;;;;;;;;;;;11.40;70.90;;;;;;4998412;28;19909;-84
2021/10/02 08:08:34;;;;;;;;;;;11.30;71.80;;;;;;5017070;28;19929;-83
2021/10/02 08:11:00;;;;;;;;;;;11.60;72.30;;;;;;4998727;28;20270;-84
2021/10/02 08:13:26;;;;;;;;;;;11.90;71.80;;;;;;5015929;28;19974;-83
2021/10/02 08:15:56;;;;;;;;;;;11.90;71.20;;;;;;5015840;28;19909;-85
2021/10/02 08:18:23;;;;;;;;;;;12.20;71.50;;;;;;5015700;28;19906;-84
2021/10/02 08:20:49;;;;;;;;;;;12.60;71.70;;;;;;4997836;28;19928;-84
2021/10/02 08:23:15;;;;;;;;;;;13.00;69.80;;;;;;4998794;28;19905;-84
2021/10/02 08:25:47;;;;;;;;;;;13.10;69.30;;;;;;5015773;28;19920;-84
2021/10/02 08:28:13;;;;;;;;;;;12.60;68.10;;;;;;4998146;28;20315;-83
2021/10/02 08:30:38;;;;;;;;;;;12.70;69.00;;;;;;5014721;28;20019;-84
2021/10/02 08:33:06;;;;;;;;;;;12.80;69.10;;;;;;4998779;28;19947;-84
2021/10/02 08:35:31;;;;;;;;;;;13.00;68.80;;;;;;5015315;28;19905;-85
2021/10/02 08:37:57;;;;;;;;;;;13.00;68.50;;;;;;5015011;28;19919;-82
2021/10/02 08:40:22;;;;;;;;;;;13.20;68.50;;;;;;5015326;28;19909;-84
2021/10/02 08:42:49;;;;;;;;;;;13.30;67.90;;;;;;5015910;28;20350;-84
2021/10/02 08:45:15;;;;;;;;;;;13.30;67.30;;;;;;5015584;28;19913;-85
2021/10/02 08:47:42;;;;;;;;;;;13.40;67.70;;;;;;5000284;28;20382;-84
2021/10/02 08:50:09;;;;;;;;;;;13.60;67.80;;;;;;5017049;28;20384;-85
2021/10/02 08:52:35;;;;;;;;;;;13.70;67.80;;;;;;5023428;28;19910;-86
2021/10/02 08:55:01;;;;;;;;;;;13.80;67.80;;;;;;5003457;28;19928;-84
2021/10/02 08:57:29;;;;;;;;;;;13.70;66.60;;;;;;5016415;28;19906;-85
2021/10/02 08:59:56;;;;;;;;;;;13.10;65.50;;;;;;5019718;28;19905;-83
2021/10/02 09:02:22;;;;;;;;;;;13.00;66.10;;;;;;4997874;28;19906;-82
2021/10/02 09:04:49;;;;;;;;;;;13.00;66.60;;;;;;5015105;28;19919;-85
2021/10/02 09:07:19;;;;;;;;;;;13.10;66.60;;;;;;5015405;28;19909;-84
2021/10/02 09:09:46;;;;;;;;;;;13.10;65.90;;;;;;4999043;28;19948;-85
2021/10/02 09:12:12;;;;;;;;;;;13.20;66.30;;;;;;5014573;28;19912;-85
2021/10/02 09:14:38;;;;;;;;;;;13.20;65.80;;;;;;4997734;28;19905;-83
2021/10/02 09:17:04;;;;;;;;;;;13.10;65.40;;;;;;5015393;28;20281;-83
2021/10/02 09:19:31;;;;;;;;;;;13.00;65.60;;;;;;5017193;28;19909;-83
2021/10/02 09:22:01;;;;;;;;;;;13.10;66.10;;;;;;5013716;28;20359;-84
2021/10/02 09:24:47;;;;;;;;;;;12.90;65.60;;;;;;5016242;28;19917;-84
2021/10/02 09:27:17;;;;;;;;;;;12.80;65.60;;;;;;5021530;28;19923;-84
2021/10/02 09:30:08;;;;;;;;;;;12.70;65.80;;;;;;5019455;28;20004;-85
2021/10/02 09:32:35;;;;;;;;;;;12.40;66.00;;;;;;5010329;28;20337;-84
2021/10/02 09:35:03;;;;;;;;;;;12.50;66.70;;;;;;5015354;28;19937;-85
2021/10/02 09:37:30;;;;;;;;;;;12.50;66.30;;;;;;4996836;28;19909;-86
2021/10/02 09:39:58;;;;;;;;;;;12.40;66.60;;;;;;5014637;28;19975;-84
2021/10/02 09:42:29;;;;;;;;;;;12.50;66.50;;;;;;5014284;28;19956;-84
2021/10/02 09:44:59;;;;;;;;;;;12.40;66.10;;;;;;5021213;28;19921;-84
2021/10/02 09:47:25;;;;;;;;;;;12.40;66.80;;;;;;4997314;28;19989;-84
2021/10/02 09:49:51;;;;;;;;;;;12.70;66.80;;;;;;5013500;28;19906;-84
2021/10/02 09:52:36;;;;;;;;;;;12.60;66.10;;;;;;5013245;28;19967;-83
2021/10/02 09:55:15;;;;;;;;;;;12.60;66.30;;;;;;5015544;28;19916;-82
2021/10/02 09:57:44;;;;;;;;;;;12.50;65.70;;;;;;5012386;28;19905;-83
2021/10/02 10:00:12;;;;;;;;;;;12.50;65.90;;;;;;5014393;28;19905;-82
2021/10/02 10:02:39;;;;;;;;;;;12.40;66.00;;;;;;5013749;28;20396;-84
2021/10/02 10:05:05;;;;;;;;;;;12.40;66.00;;;;;;4996967;28;19960;-83
2021/10/02 10:07:30;;;;;;;;;;;12.40;66.30;;;;;;5013833;28;19909;-85
2021/10/02 10:10:00;;;;;;;;;;;12.30;66.40;;;;;;5013781;28;19988;-86
2021/10/02 10:12:26;;;;;;;;;;;12.30;66.50;;;;;;4995934;28;19956;-83
2021/10/02 10:14:52;;;;;;;;;;;12.40;66.50;;;;;;5013988;28;20242;-83
2021/10/02 10:17:17;;;;;;;;;;;12.40;66.30;;;;;;5014785;28;19906;-81
2021/10/02 10:19:45;;;;;;;;;;;12.30;66.80;;;;;;5014916;28;19917;-82
2021/10/02 10:22:14;;;;;;;;;;;12.30;66.80;;;;;;5013454;28;19913;-83
2021/10/02 10:24:40;;;;;;;;;;;12.40;67.10;;;;;;5013513;28;19917;-85
2021/10/02 10:27:06;;;;;;;;;;;12.40;67.10;;;;;;5013869;28;19956;-84
2021/10/02 10:29:39;;;;;;;;;;;12.30;66.20;;;;;;4995224;28;19947;-83
2021/10/02 10:32:06;;;;;;;;;;;12.10;65.70;;;;;;4995210;28;19909;-82
2021/10/02 10:34:32;;;;;;;;;;;11.90;66.00;;;;;;4992831;28;19917;-83
2021/10/02 10:36:58;;;;;;;;;;;11.80;66.70;;;;;;4996312;28;19905;-83
2021/10/02 10:39:24;;;;;;;;;;;11.80;67.00;;;;;;5013362;28;19918;-85
2021/10/02 10:41:49;;;;;;;;;;;11.70;67.10;;;;;;4996053;28;20048;-83
2021/10/02 10:44:18;;;;;;;;;;;11.70;67.30;;;;;;5013296;28;19932;-84
2021/10/02 10:46:44;;;;;;;;;;;11.80;67.10;;;;;;5013229;28;19910;-84
2021/10/02 10:49:09;;;;;;;;;;;11.90;67.40;;;;;;5014867;28;19928;-83
2021/10/02 10:51:42;;;;;;;;;;;12.00;67.30;;;;;;5014288;28;19910;-86
2021/10/02 10:54:14;;;;;;;;;;;12.10;67.20;;;;;;5016612;28;19937;-85
2021/10/02 10:56:41;;;;;;;;;;;12.30;67.20;;;;;;5017067;28;20649;-85
2021/10/02 10:59:07;;;;;;;;;;;12.40;67.00;;;;;;5017336;28;19920;-83
2021/10/02 11:01:34;;;;;;;;;;;12.50;66.70;;;;;;4997409;28;19944;-84
2021/10/02 11:04:00;;;;;;;;;;;12.70;66.70;;;;;;5024173;28;19932;-83
2021/10/02 11:06:46;;;;;;;;;;;12.70;66.50;;;;;;5009268;28;19913;-83
2021/10/02 11:09:12;;;;;;;;;;;12.80;65.40;;;;;;4997592;28;19906;-83
2021/10/02 11:11:44;;;;;;;;;;;12.50;65.50;;;;;;5014461;28;19912;-86
2021/10/02 11:14:10;;;;;;;;;;;12.50;65.80;;;;;;5017406;28;19905;-87
2021/10/02 11:16:38;;;;;;;;;;;12.40;65.90;;;;;;5013313;28;19906;-84
2021/10/02 11:19:22;;;;;;;;;;;12.50;66.00;;;;;;5016312;28;19959;-83
2021/10/02 11:22:10;;;;;;;;;;;12.60;65.90;;;;;;5016549;28;19913;-85
2021/10/02 11:24:37;;;;;;;;;;;12.70;66.00;;;;;;5015890;28;19914;-83
2021/10/02 11:27:04;;;;;;;;;;;12.80;65.90;;;;;;5016206;28;19916;-82
2021/10/02 11:29:33;;;;;;;;;;;12.80;65.70;;;;;;5018267;28;19905;-88
2021/10/02 11:32:17;;;;;;;;;;;12.90;66.00;;;;;;4998875;28;19905;-81
2021/10/02 11:35:06;;;;;;;;;;;13.00;65.90;;;;;;5015251;28;19944;-82
2021/10/02 11:37:55;;;;;;;;;;;13.00;65.60;;;;;;4999303;28;19905;-82
2021/10/02 11:40:35;;;;;;;;;;;12.80;64.70;;;;;;5011711;28;19917;-82
2021/10/02 11:43:18;;;;;;;;;;;12.30;64.60;;;;;;5016880;28;20270;-83
2021/10/02 11:45:44;;;;;;;;;;;12.10;65.20;;;;;;5017168;28;19913;-82
2021/10/02 11:48:10;;;;;;;;;;;12.00;65.70;;;;;;5001136;28;19929;-81
2021/10/02 11:50:36;;;;;;;;;;;12.10;65.80;;;;;;5018231;28;19911;-81
2021/10/02 11:53:01;;;;;;;;;;;12.20;65.90;;;;;;5015636;28;20004;-84
2021/10/02 11:55:33;;;;;;;;;;;12.30;65.90;;;;;;5015892;28;19958;-84
2021/10/02 11:58:19;;;;;;;;;;;12.30;65.60;;;;;;5016153;28;19933;-84
2021/10/02 12:00:48;;;;;;;;;;;12.30;65.60;;;;;;5015588;28;19905;-85
2021/10/02 12:03:17;;;;;;;;;;;12.20;65.80;;;;;;5016071;28;19912;-83
2021/10/02 12:05:46;;;;;;;;;;;12.30;65.90;;;;;;5015612;28;20417;-85
2021/10/02 12:08:12;;;;;;;;;;;12.30;66.00;;;;;;5016196;28;19963;-85
2021/10/02 12:10:55;;;;;;;;;;;12.40;66.00;;;;;;5023027;28;20323;-85
2021/10/02 12:13:24;;;;;;;;;;;12.50;65.60;;;;;;5015887;28;19910;-83
2021/10/02 12:15:56;;;;;;;;;;;12.60;66.50;;;;;;5014977;28;19913;-84
2021/10/02 12:19:36;;;;;;;30.65;18.65;;;12.50;65.20;;;;;;5071278;28;20872;-83
2021/10/02 12:22:06;;;;;;;23.63;18.58;;;12.60;64.70;;;;;;5057789;28;20016;-85
2021/10/02 12:24:39;;;;;;;25.48;17.88;;;12.50;63.60;;;;;;5073087;28;20108;-83
2021/10/02 12:27:16;;;;;;;28.05;20.08;;;12.30;63.90;;;;;;5070847;28;20021;-83
2021/10/02 12:29:51;;;;;;;26.00;18.23;;;12.10;64.20;;;;;;5071076;28;20103;-84
2021/10/02 12:32:20;;;;;;;24.45;17.23;;;11.90;65.40;;;;;;5071450;28;20020;-85
2021/10/02 12:34:53;;;;;;;29.73;18.17;;;11.80;65.30;;;;;;5070951;28;20036;-84
2021/10/02 12:37:22;;;;;;;28.65;17.48;;;11.70;66.30;;;;;;5057188;28;20449;-84
2021/10/02 12:39:52;;;;;;;24.38;19.23;;;11.80;65.60;;;;;;5071070;28;20033;-84
2021/10/02 12:42:29;;;;;;;33.92;20.45;;;11.70;65.60;;;;;;5070960;28;20025;-86
2021/10/02 12:44:55;;;;;;;28.42;19.17;;;11.60;66.10;;;;;;5074849;28;20400;-85
2021/10/02 12:47:26;;;;;;;26.55;19.80;;;11.60;66.10;;;;;;5087867;28;20112;-91
2021/10/02 12:49:56;;;;;;;27.55;19.00;;;11.60;65.70;;;;;;5062013;28;20492;-89
2021/10/02 12:52:22;;;;;;;26.08;19.15;;;11.50;66.20;;;;;;5071535;28;20036;-92
2021/10/02 12:54:53;;;;;;;27.73;20.15;;;11.50;66.50;;;;;;5055299;28;20032;-90
2021/10/02 12:57:31;;;;;;;32.58;19.75;;;11.60;66.90;;;;;;5071060;28;20107;-90
2021/10/02 13:00:14;;;;;;;32.45;18.90;;;11.80;66.70;;;;;;5067466;28;20474;-89
2021/10/02 13:02:45;;;;;;;29.85;20.35;;;11.80;66.60;;;;;;5075177;28;20474;-90
2021/10/02 13:05:12;;;;;;;30.42;20.23;;;11.90;66.00;;;;;;5073509;28;20029;-91
2021/10/02 13:07:42;;;;;;;32.05;19.35;;;11.90;66.10;;;;;;5066846;28;20037;-89
2021/10/02 13:10:27;;;;;;;23.98;17.80;;;11.90;66.50;;;;;;5064644;28;20055;-91
2021/10/02 13:12:56;;;;;;;27.65;19.40;;;12.00;65.70;;;;;;5082616;28;20033;-90
2021/10/02 13:15:24;;;;;;;26.80;18.05;;;11.80;65.80;;;;;;5057000;28;20022;-90
2021/10/02 13:17:57;;;;;;;;;;;11.80;66.20;;;;;;5074278;28;20083;-87
2021/10/02 13:20:23;;;;;;;28.42;18.20;;;11.60;66.30;;;;;;5075673;28;19905;-91
2021/10/02 13:22:50;;;;;;;32.33;21.98;;;11.40;66.90;;;;;;5089841;28;20028;-87
2021/10/02 13:25:23;;;;;;;33.50;25.52;;;11.40;67.00;;;;;;5094750;28;20021;-91
2021/10/02 13:27:52;;;;;;;33.65;20.33;;;11.40;67.30;;;;;;5071613;28;20490;-86
2021/10/02 13:30:22;;;;;;;34.55;21.45;;;11.50;67.20;;;;;;5043227;28;20025;-90
2021/10/02 13:33:22;;;;;;;31.58;20.23;;;11.50;67.50;;;;;;5054698;28;20386;-86
2021/10/02 13:35:54;;;;;;;26.50;18.85;;;11.50;67.10;;;;;;5048428;28;20068;-87
2021/10/02 13:38:32;;;;;;;27.02;21.05;;;11.60;67.00;;;;;;5049217;28;20371;-86
2021/10/02 13:41:00;;;;;;;25.25;19.80;;;11.40;66.90;;;;;;5056444;28;20025;-83
2021/10/02 13:43:26;;;;;;;32.67;19.85;;;11.40;67.10;;;;;;5059264;28;20025;-87
2021/10/02 13:45:52;;;;;;;26.85;18.17;;;11.20;67.30;;;;;;5076431;28;20032;-86
2021/10/02 13:48:28;;;;;;;30.30;21.27;;;11.20;67.60;;;;;;5056651;28;20105;-86
2021/10/02 13:50:55;;;;;;;30.92;20.30;;;11.10;68.10;;;;;;5037010;28;20071;-85
2021/10/02 13:53:21;;;;;;;23.50;19.80;;;11.10;68.80;;;;;;5040000;28;20426;-83
2021/10/02 13:55:47;;;;;;;28.65;20.48;;;11.00;69.00;;;;;;5042271;28;20026;-88
2021/10/02 13:58:14;;;;;;;27.80;20.25;;;10.90;68.60;;;;;;5042806;28;20034;-86
2021/10/02 14:00:40;;;;;;;28.77;19.53;;;10.70;69.10;;;;;;5046436;28;20025;-85
2021/10/02 14:03:07;;;;;;;29.40;20.50;;;10.70;69.00;;;;;;5037346;28;20379;-88
2021/10/02 14:05:33;;;;;;;31.88;21.80;;;10.60;69.10;;;;;;5040322;28;20037;-87
2021/10/02 14:08:00;;;;;;;28.73;20.65;;;10.60;69.50;;;;;;5048469;28;20041;-86
2021/10/02 14:10:31;;;;;;;27.85;20.45;;;10.60;70.30;;;;;;5047118;28;20048;-91
2021/10/02 14:13:00;;;;;;;26.42;20.05;;;10.60;70.30;;;;;;5046519;28;20063;-88
2021/10/02 14:15:27;;;;;;;30.80;20.38;;;10.60;69.80;;;;;;5030409;28;20041;-89
2021/10/02 14:17:56;;;;;;;29.98;20.17;;;10.60;69.70;;;;;;5045780;28;20109;-89
2021/10/02 14:20:23;;;;;;;30.52;20.35;;;10.70;69.90;;;;;;5051271;28;20382;-91
2021/10/02 14:22:50;;;;;;;25.88;19.27;;;10.60;70.10;;;;;;5046686;28;20025;-90
2021/10/02 14:25:16;;;;;;;38.63;21.27;;;10.60;70.30;;;;;;5052998;28;20093;-89
2021/10/02 14:27:42;;;;;;;24.63;18.73;;;10.60;70.40;;;;;;5062122;28;20041;-87
2021/10/02 14:30:09;;;;;;;26.65;19.13;;;10.50;70.40;;;;;;5060216;28;20017;-89
2021/10/02 14:32:38;;;;;;;30.73;18.65;;;10.50;70.50;;;;;;5065070;28;20033;-92
2021/10/02 14:35:08;;;;;;;29.83;17.77;;;10.40;70.70;;;;;;5049560;28;20030;-91
2021/10/02 14:37:37;;;;;;;31.10;20.40;;;10.20;70.90;;;;;;5046110;28;20041;-90
2021/10/02 14:40:04;;;;;;;25.77;19.48;;;10.10;71.70;;;;;;5046590;28;20041;-91
2021/10/02 14:42:30;;;;;;;31.92;20.58;;;10.00;71.80;;;;;;5048953;28;20025;-89
2021/10/02 14:44:57;;;;;;;29.30;18.55;;;10.00;71.90;;;;;;5040632;28;20036;-89
2021/10/02 14:47:23;;;;;;;29.10;17.95;;;10.00;72.40;;;;;;5044206;28;20029;-85
2021/10/02 14:49:52;;;;;;;26.50;19.25;;;10.00;72.60;;;;;;5048816;28;20033;-92
2021/10/02 14:52:20;;;;;;;30.00;20.75;;;10.00;72.50;;;;;;5043681;28;20028;-91
2021/10/02 14:54:46;;;;;;;32.58;20.25;;;10.00;72.40;;;;;;5057789;28;20025;-89
2021/10/02 14:57:15;;;;;;;25.05;20.20;;;10.10;72.70;;;;;;5071167;28;20051;-88
2021/10/02 14:59:44;;;;;;;30.23;20.40;;;10.20;72.90;;;;;;5057965;28;20033;-90